Time;durP1;ratioP1;P1;durP2;ratioP2;P2;SDS_P1;SDS_P2;PMS_P1;PMS_P2;Temp;Humidity;BMP_temperature;BMP_pressure;BME280_temperature;BME280_humidity;BME280_pressure;Samples;Min_cycle;Max_cycle;Signal;HPM_P1;HPM_P2
2022/08/26 00:01:52;;;;;;;10.33;5.10;;;21.20;97.80;;;;;;4773547;30;20204;-75
2022/08/26 00:04:22;;;;;;;11.10;5.20;;;21.10;98.10;;;;;;4788095;29;20265;-72
2022/08/26 00:06:50;;;;;;;11.00;5.30;;;21.10;98.50;;;;;;4788101;30;20310;-72
2022/08/26 00:09:17;;;;;;;11.57;4.90;;;21.00;98.50;;;;;;4773969;30;20656;-72
2022/08/26 00:11:45;;;;;;;12.83;5.33;;;21.00;98.80;;;;;;4789312;30;20208;-72
2022/08/26 00:14:15;;;;;;;14.20;5.60;;;21.00;99.00;;;;;;4788532;30;20239;-71
2022/08/26 00:16:43;;;;;;;15.43;5.67;;;21.00;99.10;;;;;;4788137;30;20234;-72
2022/08/26 00:19:16;;;;;;;14.00;5.33;;;20.90;99.30;;;;;;4788456;30;20219;-72
2022/08/26 00:21:45;;;;;;;14.67;5.00;;;20.90;99.70;;;;;;4773492;30;20219;-73
2022/08/26 00:24:14;;;;;;;12.30;4.97;;;20.90;99.80;;;;;;4788017;30;20204;-72
2022/08/26 00:26:41;;;;;;;9.60;5.20;;;20.80;99.90;;;;;;4787612;30;20215;-72
2022/08/26 00:29:08;;;;;;;12.87;4.83;;;20.90;99.90;;;;;;4788222;30;20247;-70
2022/08/26 00:31:36;;;;;;;11.37;4.77;;;20.80;99.90;;;;;;4788862;30;20197;-73
2022/08/26 00:34:04;;;;;;;13.30;5.40;;;20.80;99.90;;;;;;4773062;30;20613;-74
2022/08/26 00:36:31;;;;;;;13.57;5.30;;;20.80;99.90;;;;;;4787506;30;20246;-72
2022/08/26 00:38:58;;;;;;;10.47;4.47;;;20.70;99.90;;;;;;4801174;29;20348;-73
2022/08/26 00:41:27;;;;;;;9.90;4.90;;;20.70;99.90;;;;;;4802543;29;20265;-74
2022/08/26 00:43:54;;;;;;;9.87;5.00;;;20.70;99.90;;;;;;4789149;30;20243;-74
2022/08/26 00:46:27;;;;;;;12.83;5.47;;;20.70;99.90;;;;;;4802515;29;20212;-74
2022/08/26 00:49:04;;;;;;;11.70;4.97;;;20.70;99.90;;;;;;4802805;29;20702;-73
2022/08/26 00:51:48;;;;;;;12.23;5.07;;;20.70;99.90;;;;;;4787551;30;20303;-71
2022/08/26 00:54:18;;;;;;;12.63;4.93;;;20.60;99.90;;;;;;4802466;29;20222;-73
2022/08/26 00:56:52;;;;;;;8.37;4.70;;;20.60;99.90;;;;;;4788508;30;20295;-73
2022/08/26 00:59:19;;;;;;;11.43;5.07;;;20.50;99.90;;;;;;4802632;29;20204;-73
2022/08/26 01:01:47;;;;;;;11.03;5.30;;;20.50;99.90;;;;;;4788447;30;20621;-72
2022/08/26 01:04:18;;;;;;;11.87;5.33;;;20.50;99.90;;;;;;4787200;30;20208;-72
2022/08/26 01:06:48;;;;;;;12.87;5.13;;;20.40;99.90;;;;;;4802660;29;20220;-73
2022/08/26 01:09:15;;;;;;;12.27;5.00;;;20.40;99.90;;;;;;4787282;30;20295;-72
2022/08/26 01:11:43;;;;;;;10.97;5.40;;;20.40;99.90;;;;;;4802334;29;20208;-74
2022/08/26 01:14:12;;;;;;;9.57;4.73;;;20.40;99.90;;;;;;4802076;29;20243;-72
2022/08/26 01:16:39;;;;;;;11.93;5.17;;;20.30;99.90;;;;;;4802360;29;20246;-73
2022/08/26 01:19:34;;;;;;;13.03;5.37;;;20.30;99.90;;;;;;4787414;30;20208;-73
2022/08/26 01:22:13;;;;;;;10.70;5.07;;;20.30;99.90;;;;;;4787019;29;20204;-73
2022/08/26 01:24:41;;;;;;;13.63;5.60;;;20.30;99.90;;;;;;4788311;29;20212;-74
2022/08/26 01:27:12;;;;;;;10.20;5.10;;;20.20;99.90;;;;;;4802459;29;20212;-73
2022/08/26 01:29:43;;;;;;;11.67;5.80;;;20.20;99.90;;;;;;4787372;30;20204;-73
2022/08/26 01:32:14;;;;;;;11.47;5.17;;;20.10;99.90;;;;;;4786860;30;20204;-74
2022/08/26 01:34:41;;;;;;;10.17;5.43;;;20.10;99.90;;;;;;4786848;30;20643;-74
2022/08/26 01:37:21;;;;;;;11.37;5.10;;;20.00;99.90;;;;;;4787697;29;20240;-73
2022/08/26 01:39:52;;;;;;;13.07;5.40;;;20.00;99.90;;;;;;4786869;30;20224;-72
2022/08/26 01:42:22;;;;;;;10.77;5.00;;;20.00;99.90;;;;;;4786681;30;20671;-73
2022/08/26 01:45:04;;;;;;;14.93;5.23;;;20.00;99.90;;;;;;4787098;30;20200;-73
2022/08/26 01:47:36;;;;;;;11.20;5.40;;;20.10;99.90;;;;;;4787170;30;20559;-73
2022/08/26 01:50:11;;;;;;;12.37;5.13;;;19.90;99.90;;;;;;4786537;29;20200;-74
2022/08/26 01:52:43;;;;;;;8.13;4.67;;;19.90;99.90;;;;;;4757204;30;20215;-73
2022/08/26 01:55:20;;;;;;;11.97;4.93;;;19.90;99.90;;;;;;4771998;30;20207;-73
2022/08/26 01:58:00;;;;;;;12.00;5.43;;;19.90;99.90;;;;;;4786640;30;20327;-73
2022/08/26 02:00:27;;;;;;;12.23;5.10;;;19.80;99.90;;;;;;4786473;30;20651;-73
2022/08/26 02:03:15;;;;;;;9.57;4.60;;;19.80;99.90;;;;;;4771587;30;20293;-73
2022/08/26 02:06:04;;;;;;;14.17;5.43;;;19.80;99.90;;;;;;4787797;30;20571;-73
2022/08/26 02:08:42;;;;;;;11.03;4.80;;;19.80;99.90;;;;;;4771428;30;20208;-73
2022/08/26 02:11:10;;;;;;;9.27;5.23;;;19.70;99.90;;;;;;4771869;30;20282;-74
2022/08/26 02:13:43;;;;;;;9.60;4.70;;;19.80;99.90;;;;;;4771740;30;20214;-73
2022/08/26 02:16:11;;;;;;;9.93;4.53;;;19.80;99.90;;;;;;4786430;30;20323;-73
2022/08/26 02:18:42;;;;;;;15.43;5.50;;;19.80;99.90;;;;;;4786532;30;20228;-74
2022/08/26 02:21:10;;;;;;;12.60;5.37;;;19.80;99.90;;;;;;4786230;30;20212;-74
2022/08/26 02:23:40;;;;;;;12.33;5.60;;;19.80;99.90;;;;;;4771513;30;20257;-73
2022/08/26 02:26:11;;;;;;;11.63;5.60;;;19.70;99.90;;;;;;4771313;30;20569;-74
2022/08/26 02:29:08;;;;;;;11.73;5.10;;;19.70;99.90;;;;;;4787376;30;20288;-74
2022/08/26 02:31:35;;;;;;;11.70;5.00;;;19.70;99.90;;;;;;4771127;30;20216;-73
2022/08/26 02:34:13;;;;;;;11.87;5.20;;;19.60;99.90;;;;;;4786257;29;20650;-75
2022/08/26 02:36:41;;;;;;;11.47;5.47;;;19.60;99.90;;;;;;4785783;30;20231;-75
2022/08/26 02:39:08;;;;;;;9.87;5.30;;;19.60;99.90;;;;;;4786015;29;20330;-76
2022/08/26 02:41:36;;;;;;;11.43;5.50;;;19.60;99.90;;;;;;4801329;29;20680;-75
2022/08/26 02:44:10;;;;;;;10.60;5.23;;;19.50;99.90;;;;;;4801235;29;20200;-76
2022/08/26 02:46:38;;;;;;;10.97;4.90;;;19.50;99.90;;;;;;4788002;30;20636;-76
2022/08/26 02:49:06;;;;;;;12.97;5.40;;;19.50;99.90;;;;;;4801314;29;20209;-75
2022/08/26 02:51:33;;;;;;;13.53;5.33;;;19.50;99.90;;;;;;4785890;30;20207;-75
2022/08/26 02:54:00;;;;;;;16.20;5.47;;;19.50;99.90;;;;;;4787176;30;20559;-76
2022/08/26 02:56:28;;;;;;;11.87;5.00;;;19.50;99.90;;;;;;4786701;30;20228;-76
2022/08/26 02:58:55;;;;;;;11.50;5.67;;;19.50;99.90;;;;;;4786988;30;20299;-76
2022/08/26 03:01:34;;;;;;;8.97;5.63;;;19.50;99.90;;;;;;4786214;30;20651;-75
2022/08/26 03:04:03;;;;;;;9.57;4.97;;;19.50;99.90;;;;;;4801327;29;20316;-76
2022/08/26 03:06:41;;;;;;;10.60;5.13;;;19.40;99.90;;;;;;4789609;30;20216;-75
2022/08/26 03:09:08;;;;;;;13.63;5.10;;;19.40;99.90;;;;;;4804388;29;20219;-76
2022/08/26 03:11:36;;;;;;;8.37;5.00;;;19.40;99.90;;;;;;4789217;30;20299;-76
2022/08/26 03:14:03;;;;;;;10.50;5.10;;;19.30;99.90;;;;;;4804368;29;20306;-75
2022/08/26 03:16:35;;;;;;;10.50;5.00;;;19.30;99.90;;;;;;4804377;29;20228;-74
2022/08/26 03:19:05;;;;;;;15.70;6.10;;;19.20;99.90;;;;;;4789352;29;20275;-75
2022/08/26 03:21:34;;;;;;;12.03;5.00;;;19.20;99.90;;;;;;4803897;29;20291;-75
2022/08/26 03:24:02;;;;;;;12.73;5.20;;;19.20;99.90;;;;;;4789790;29;20208;-76
2022/08/26 03:26:29;;;;;;;13.63;4.93;;;19.20;99.90;;;;;;4788793;29;20261;-76
2022/08/26 03:31:42;;;;;;;14.53;5.43;;;19.20;99.90;;;;;;4803837;29;20262;-76
2022/08/26 03:34:13;;;;;;;13.67;5.70;;;19.20;99.90;;;;;;4788871;30;20291;-74
2022/08/26 03:36:40;;;;;;;8.83;5.30;;;19.20;99.90;;;;;;4789412;30;20240;-75
2022/08/26 03:39:08;;;;;;;11.50;5.20;;;19.10;99.90;;;;;;4790462;30;20297;-75
2022/08/26 03:41:35;;;;;;;15.63;5.20;;;19.10;99.90;;;;;;4790098;30;20567;-75
2022/08/26 03:44:04;;;;;;;12.87;5.00;;;19.10;99.90;;;;;;4790176;30;20570;-75
2022/08/26 03:46:32;;;;;;;9.33;5.30;;;19.10;99.90;;;;;;4788883;30;20574;-75
2022/08/26 03:49:00;;;;;;;10.73;5.00;;;19.10;99.90;;;;;;4788495;30;20215;-76
2022/08/26 03:51:28;;;;;;;9.80;5.20;;;19.10;99.90;;;;;;4773546;30;20779;-75
2022/08/26 03:53:55;;;;;;;9.73;5.20;;;19.10;99.90;;;;;;4788550;30;20307;-74
2022/08/26 03:56:22;;;;;;;9.57;5.27;;;19.20;99.90;;;;;;4790014;30;20266;-75
2022/08/26 03:58:49;;;;;;;11.87;5.80;;;19.20;99.90;;;;;;4774028;30;20208;-76
2022/08/26 04:01:16;;;;;;;11.40;5.43;;;19.20;99.90;;;;;;4773376;30;20273;-75
2022/08/26 04:03:57;;;;;;;10.97;5.40;;;19.20;99.90;;;;;;4789461;30;20197;-76
2022/08/26 04:06:28;;;;;;;11.50;5.10;;;19.20;99.90;;;;;;4790018;30;20231;-75
2022/08/26 04:08:56;;;;;;;15.10;5.93;;;19.10;99.90;;;;;;4773483;30;20230;-75
2022/08/26 04:11:29;;;;;;;8.60;5.53;;;19.20;99.90;;;;;;4788381;30;20567;-75
2022/08/26 04:14:13;;;;;;;15.47;5.70;;;19.20;99.90;;;;;;4789459;30;20193;-75
2022/08/26 04:16:44;;;;;;;11.57;5.40;;;19.20;99.90;;;;;;4789011;30;20216;-75
2022/08/26 04:19:13;;;;;;;8.80;4.77;;;19.30;99.90;;;;;;4789237;30;20565;-75
2022/08/26 04:21:41;;;;;;;13.47;5.70;;;19.30;99.90;;;;;;4773107;30;20574;-75
2022/08/26 04:24:10;;;;;;;12.37;5.70;;;19.40;99.90;;;;;;4773139;30;20208;-75
2022/08/26 04:26:39;;;;;;;15.00;5.50;;;19.40;99.90;;;;;;4773130;30;20287;-74
2022/08/26 04:29:13;;;;;;;9.40;5.33;;;19.40;99.90;;;;;;4773067;30;20212;-75
2022/08/26 04:31:41;;;;;;;11.23;5.60;;;19.40;99.90;;;;;;4788143;30;20567;-76
2022/08/26 04:34:09;;;;;;;9.87;4.97;;;19.50;99.90;;;;;;4773204;30;20720;-76
2022/08/26 04:36:37;;;;;;;12.30;5.83;;;19.50;99.90;;;;;;4789315;30;20703;-77
2022/08/26 04:39:10;;;;;;;8.63;5.13;;;19.50;99.90;;;;;;4784188;29;20272;-76
2022/08/26 04:41:39;;;;;;;10.57;4.83;;;19.50;99.90;;;;;;4769865;30;20205;-75
2022/08/26 04:44:09;;;;;;;11.80;5.30;;;19.60;99.90;;;;;;4769835;30;20232;-75
2022/08/26 04:46:36;;;;;;;9.20;5.10;;;19.60;99.90;;;;;;4770869;30;20205;-75
2022/08/26 04:49:10;;;;;;;9.93;4.90;;;19.70;99.90;;;;;;4769265;30;20213;-76
2022/08/26 04:51:37;;;;;;;9.87;5.13;;;19.70;99.90;;;;;;4770785;30;20606;-75
2022/08/26 04:54:10;;;;;;;9.10;4.83;;;19.80;99.90;;;;;;4769299;30;20208;-77
2022/08/26 04:56:40;;;;;;;11.90;4.80;;;19.90;99.90;;;;;;4770902;30;20201;-76
2022/08/26 04:59:14;;;;;;;10.73;5.17;;;20.00;99.90;;;;;;4769601;30;20237;-76
2022/08/26 05:01:50;;;;;;;11.60;5.17;;;20.10;99.90;;;;;;4769857;30;20212;-76
2022/08/26 05:04:18;;;;;;;13.20;5.60;;;20.20;99.90;;;;;;4769753;30;20197;-77
2022/08/26 05:06:47;;;;;;;12.17;5.80;;;20.30;99.90;;;;;;4770324;30;20239;-76
2022/08/26 05:09:14;;;;;;;12.30;5.70;;;20.40;99.90;;;;;;4769520;30;20209;-77
2022/08/26 05:11:41;;;;;;;11.67;5.47;;;20.40;99.90;;;;;;4784055;30;20205;-75
2022/08/26 05:14:08;;;;;;;12.77;6.10;;;20.50;99.90;;;;;;4784131;30;20308;-75
2022/08/26 05:16:36;;;;;;;14.93;5.97;;;20.60;99.90;;;;;;4784178;30;20216;-77
2022/08/26 05:19:06;;;;;;;19.20;5.83;;;20.70;99.90;;;;;;4770247;30;20201;-75
2022/08/26 05:21:34;;;;;;;14.67;5.80;;;20.70;99.90;;;;;;4768870;30;20231;-75
2022/08/26 05:24:03;;;;;;;18.63;6.20;;;20.80;99.90;;;;;;4783172;30;20717;-75
2022/08/26 05:26:31;;;;;;;17.33;5.97;;;21.00;99.90;;;;;;4768946;30;20201;-77
2022/08/26 05:28:58;;;;;;;9.60;5.47;;;21.00;99.90;;;;;;4768268;30;20204;-76
2022/08/26 05:31:29;;;;;;;10.93;5.80;;;21.10;99.90;;;;;;4768893;30;20209;-75
2022/08/26 05:34:39;;;;;;;14.90;5.93;;;21.30;99.90;;;;;;4768764;30;20200;-75
2022/08/26 05:37:11;;;;;;;16.67;5.37;;;21.30;99.90;;;;;;4772486;29;20296;-76
2022/08/26 05:39:39;;;;;;;12.30;5.20;;;21.50;99.90;;;;;;4772022;30;20212;-77
2022/08/26 05:42:14;;;;;;;15.17;5.40;;;21.60;99.90;;;;;;4788114;30;20624;-75
2022/08/26 05:44:42;;;;;;;13.13;5.70;;;21.70;99.90;;;;;;4787070;30;20215;-77
2022/08/26 05:47:29;;;;;;;11.47;5.30;;;21.80;99.90;;;;;;4785856;29;20232;-76
2022/08/26 05:49:55;;;;;;;10.33;4.60;;;22.00;99.90;;;;;;4787779;30;20291;-77
2022/08/26 05:52:22;;;;;;;11.70;5.00;;;22.10;99.90;;;;;;4771778;30;20206;-75
2022/08/26 05:54:52;;;;;;;9.97;4.83;;;22.20;99.90;;;;;;4771578;30;20303;-75
2022/08/26 05:57:19;;;;;;;8.70;4.57;;;22.40;99.90;;;;;;4786746;29;20236;-77
2022/08/26 05:59:49;;;;;;;10.87;4.87;;;22.50;99.90;;;;;;4773260;30;20719;-76
2022/08/26 06:02:18;;;;;;;11.87;4.73;;;22.60;99.90;;;;;;4787004;30;20727;-75
2022/08/26 06:04:46;;;;;;;15.33;5.67;;;22.70;99.90;;;;;;4787996;30;20232;-74
2022/08/26 06:07:13;;;;;;;13.50;5.00;;;22.60;99.90;;;;;;4771388;30;20750;-74
2022/08/26 06:09:40;;;;;;;13.17;4.70;;;22.70;99.90;;;;;;4771815;30;20281;-74
2022/08/26 06:12:07;;;;;;;11.97;4.80;;;22.70;99.90;;;;;;4787556;30;20633;-74
2022/08/26 06:14:34;;;;;;;13.13;5.10;;;22.80;99.90;;;;;;4786382;30;20219;-75
2022/08/26 06:17:03;;;;;;;16.45;5.30;;;23.00;99.90;;;;;;4771571;30;20693;-72
2022/08/26 06:19:30;;;;;;;12.03;5.03;;;23.00;99.90;;;;;;4772152;30;20208;-74
2022/08/26 06:25:36;;;;;;;12.00;5.28;;;23.00;99.90;;;;;;4771497;30;20204;-73
2022/08/26 06:27:41;;;;;;;15.38;5.78;;;23.30;99.90;;;;;;4788476;30;20212;-74
2022/08/26 06:30:09;;;;;;;12.50;6.20;;;23.30;99.90;;;;;;4772288;30;20208;-77
2022/08/26 06:32:36;;;;;;;19.13;6.28;;;23.40;99.90;;;;;;4787531;30;20200;-67
2022/08/26 06:35:03;;;;;;;14.48;6.15;;;23.40;99.90;;;;;;4771169;30;20218;-66
2022/08/26 06:37:30;;;;;;;16.23;5.25;;;23.40;99.90;;;;;;4773330;30;20304;-69
2022/08/26 06:39:58;;;;;;;13.65;5.47;;;23.50;99.90;;;;;;4789267;29;20527;-65
2022/08/26 06:42:25;;;;;;;14.10;5.70;;;23.60;99.90;;;;;;4804702;29;20223;-69
2022/08/26 06:44:52;;;;;;;19.23;5.90;;;23.70;99.90;;;;;;4790691;30;20196;-70
2022/08/26 06:47:19;;;;;;;15.82;5.25;;;23.80;99.90;;;;;;4789409;30;20338;-68
2022/08/26 06:49:46;;;;;;;18.30;6.22;;;23.90;99.90;;;;;;4804380;29;20204;-69
2022/08/26 06:52:16;;;;;;;16.70;5.80;;;24.00;99.90;;;;;;4804485;29;20209;-69
2022/08/26 06:54:50;;;;;;;14.35;5.20;;;24.10;99.90;;;;;;4804329;29;20211;-70
2022/08/26 06:57:16;;;;;;;18.55;5.85;;;24.20;99.90;;;;;;4804497;29;20240;-71
2022/08/26 06:59:43;;;;;;;11.43;5.10;;;24.30;99.90;;;;;;4789192;30;20213;-68
2022/08/26 07:02:10;;;;;;;9.95;5.10;;;24.30;99.90;;;;;;4789233;30;20219;-69
2022/08/26 07:04:39;;;;;;;17.05;5.50;;;24.40;99.90;;;;;;4789269;30;20212;-72
2022/08/26 07:07:07;;;;;;;11.77;5.40;;;24.50;99.90;;;;;;4804469;29;20208;-69
2022/08/26 07:09:36;;;;;;;25.45;6.97;;;24.60;99.90;;;;;;4803836;29;20275;-67
2022/08/26 07:12:03;;;;;;;16.85;6.18;;;24.60;99.90;;;;;;4789133;30;20239;-65
2022/08/26 07:14:30;;;;;;;11.77;5.30;;;24.70;99.90;;;;;;4804238;29;20212;-68
2022/08/26 07:16:58;;;;;;;12.82;5.18;;;24.70;99.90;;;;;;4788964;30;20224;-67
2022/08/26 07:19:25;;;;;;;15.35;5.25;;;24.80;99.90;;;;;;4789041;30;20220;-66
2022/08/26 07:21:56;;;;;;;14.48;5.53;;;24.90;99.90;;;;;;4789182;30;20200;-68
2022/08/26 07:24:23;;;;;;;13.02;5.65;;;25.00;99.90;;;;;;4803941;29;20209;-66
2022/08/26 07:26:58;;;;;;;12.35;5.55;;;25.00;99.90;;;;;;4788721;30;20231;-67
2022/08/26 07:29:25;;;;;;;19.75;5.82;;;25.10;99.90;;;;;;4803992;29;20226;-71
2022/08/26 07:31:52;;;;;;;12.93;5.43;;;25.20;99.90;;;;;;4788384;30;20208;-71
2022/08/26 07:34:22;;;;;;;15.57;5.55;;;25.30;99.90;;;;;;4803897;29;20192;-69
2022/08/26 07:36:50;;;;;;;10.85;5.15;;;25.40;99.90;;;;;;4788554;30;20274;-69
2022/08/26 07:39:18;;;;;;;19.77;6.28;;;25.50;99.90;;;;;;4788514;29;20334;-70
2022/08/26 07:41:46;;;;;;;12.82;5.55;;;25.60;99.90;;;;;;4789170;30;20516;-68
2022/08/26 07:44:14;;;;;;;13.63;5.78;;;25.70;99.90;;;;;;4773583;30;20208;-70
2022/08/26 07:46:41;;;;;;;11.20;5.53;;;25.70;99.90;;;;;;4773549;30;20212;-71
2022/08/26 07:49:10;;;;;;;11.80;5.60;;;25.80;99.90;;;;;;4774089;30;20243;-74
2022/08/26 07:51:39;;;;;;;10.70;5.22;;;25.90;99.90;;;;;;4789003;29;20265;-70
2022/08/26 07:54:06;;;;;;;13.25;5.43;;;26.00;99.90;;;;;;4789554;30;20265;-69
2022/08/26 07:56:34;;;;;;;11.30;5.25;;;26.10;99.90;;;;;;4773470;30;20222;-69
2022/08/26 07:59:02;;;;;;;12.60;5.45;;;26.20;99.90;;;;;;4788226;30;20270;-69
2022/08/26 08:01:40;;;;;;;11.75;5.43;;;26.20;99.90;;;;;;4788352;30;20200;-69
2022/08/26 08:04:12;;;;;;;14.38;5.68;;;26.40;99.90;;;;;;4788165;30;20269;-71
2022/08/26 08:06:40;;;;;;;15.05;5.43;;;26.50;99.90;;;;;;4789669;30;20693;-69
2022/08/26 08:09:11;;;;;;;13.57;5.80;;;27.20;99.90;;;;;;4787836;30;20218;-69
2022/08/26 08:11:38;;;;;;;10.02;5.03;;;28.40;99.60;;;;;;4789047;30;20231;-70
2022/08/26 08:14:05;;;;;;;10.18;5.35;;;29.70;97.50;;;;;;4789298;30;20573;-70
2022/08/26 08:16:34;;;;;;;10.13;5.15;;;30.70;94.90;;;;;;4773070;30;20212;-69
2022/08/26 08:19:04;;;;;;;14.40;5.35;;;31.40;93.30;;;;;;4788017;29;20289;-68
2022/08/26 08:21:31;;;;;;;11.23;5.65;;;31.90;91.70;;;;;;4788302;30;20204;-70
2022/08/26 08:23:58;;;;;;;11.27;5.00;;;32.20;88.10;;;;;;4773448;30;20217;-68
2022/08/26 08:26:26;;;;;;;9.82;5.15;;;32.40;86.30;;;;;;4789085;30;20663;-69
2022/08/26 08:28:55;;;;;;;10.43;4.53;;;32.60;84.50;;;;;;4773119;30;20208;-70
2022/08/26 08:31:25;;;;;;;13.88;5.30;;;32.80;83.70;;;;;;4772674;30;20573;-71
2022/08/26 08:34:12;;;;;;;10.18;5.32;;;33.10;82.40;;;;;;4788816;30;20204;-68
2022/08/26 08:36:39;;;;;;;14.38;5.15;;;33.50;80.40;;;;;;4773279;30;20244;-70
2022/08/26 08:39:07;;;;;;;12.27;4.75;;;33.60;78.10;;;;;;4788511;30;20639;-69
2022/08/26 08:41:50;;;;;;;12.98;5.07;;;33.60;76.80;;;;;;4787944;30;20196;-72
2022/08/26 08:44:20;;;;;;;10.50;5.07;;;33.70;76.50;;;;;;4788056;30;20227;-68
2022/08/26 08:46:53;;;;;;;11.05;4.88;;;34.00;75.70;;;;;;4773311;30;20709;-74
2022/08/26 08:49:21;;;;;;;11.75;4.70;;;34.30;73.50;;;;;;4787917;30;20208;-71
2022/08/26 08:52:24;;;;;;;16.13;5.38;;;34.40;72.20;;;;;;4787709;30;20307;-75
2022/08/26 08:54:54;;;;;;;15.52;5.38;;;34.30;69.80;;;;;;4771829;30;20224;-72
2022/08/26 08:57:46;;;;;;;11.18;4.82;;;34.40;67.70;;;;;;4773370;30;20681;-73
2022/08/26 09:00:29;;;;;;;8.40;4.70;;;34.20;68.40;;;;;;4787632;30;20246;-73
2022/08/26 09:03:02;;;;;;;14.75;5.20;;;34.40;69.50;;;;;;4786381;29;20204;-72
2022/08/26 09:05:42;;;;;;;16.95;5.15;;;34.70;69.70;;;;;;4787268;30;20204;-73
2022/08/26 09:08:20;;;;;;;14.05;5.03;;;34.60;69.00;;;;;;4787533;30;20208;-74
2022/08/26 09:10:49;;;;;;;17.10;5.15;;;34.70;69.00;;;;;;4787428;30;20250;-74
2022/08/26 09:13:19;;;;;;;10.38;5.30;;;34.90;68.00;;;;;;4787377;30;20220;-72
2022/08/26 09:16:19;;;;;;;11.13;4.90;;;35.00;67.90;;;;;;4787089;30;20265;-72
2022/08/26 09:19:04;;;;;;;15.20;4.78;;;35.10;66.10;;;;;;4771965;30;20225;-73
2022/08/26 09:21:32;;;;;;;9.07;4.40;;;35.30;65.10;;;;;;4772705;30;20204;-70
2022/08/26 09:23:59;;;;;;;13.27;5.13;;;35.50;60.80;;;;;;4787192;30;20305;-69
2022/08/26 09:26:44;;;;;;;12.52;4.90;;;35.50;60.60;;;;;;4772524;30;20204;-68
2022/08/26 09:29:18;;;;;;;8.45;4.32;;;35.40;61.70;;;;;;4787032;30;20200;-68
2022/08/26 09:31:51;;;;;;;11.60;4.60;;;35.30;61.10;;;;;;4787037;30;20209;-68
2022/08/26 09:34:25;;;;;;;16.23;4.63;;;35.10;59.80;;;;;;4786992;30;20213;-69
2022/08/26 09:36:57;;;;;;;9.80;4.30;;;35.00;59.40;;;;;;4787207;30;20274;-69
2022/08/26 09:39:26;;;;;;;10.27;4.32;;;34.80;60.40;;;;;;4772260;30;20232;-70
2022/08/26 09:42:04;;;;;;;10.25;4.35;;;34.90;60.00;;;;;;4786833;30;20312;-69
2022/08/26 09:44:32;;;;;;;8.48;4.35;;;34.90;59.80;;;;;;4787150;29;20212;-69
2022/08/26 09:47:05;;;;;;;16.65;4.90;;;35.00;60.70;;;;;;4787290;30;20209;-69
2022/08/26 09:49:36;;;;;;;11.45;4.85;;;35.00;61.50;;;;;;4786848;30;20307;-69
2022/08/26 09:52:28;;;;;;;8.63;4.30;;;34.90;59.50;;;;;;4772157;30;20224;-70
2022/08/26 09:55:19;;;;;;;9.75;4.25;;;34.90;60.00;;;;;;4787944;30;20659;-74
2022/08/26 09:57:54;;;;;;;10.10;4.60;;;34.90;58.30;;;;;;4787158;30;20209;-68
2022/08/26 10:00:23;;;;;;;8.25;4.13;;;35.00;58.70;;;;;;4771480;30;20212;-70
2022/08/26 10:02:50;;;;;;;8.73;4.20;;;35.00;59.20;;;;;;4786530;30;20247;-69
2022/08/26 10:05:55;;;;;;;11.65;4.40;;;35.30;58.30;;;;;;4787142;30;20204;-70
2022/08/26 10:08:30;;;;;;;10.15;4.70;;;35.70;57.00;;;;;;4732566;30;20575;-70
2022/08/26 10:11:01;;;;;;;14.43;8.32;;;36.00;56.10;;;;;;4732574;30;20308;-69
2022/08/26 10:13:34;;;;;;;9.20;4.97;;;36.30;56.60;;;;;;4717504;30;20222;-68
2022/08/26 10:16:16;;;;;;;10.32;4.75;;;36.80;55.60;;;;;;4732657;30;20202;-68
2022/08/26 10:19:02;;;;;;;14.80;5.57;;;36.80;54.80;;;;;;4717956;30;20806;-68
2022/08/26 10:21:38;;;;;;;12.55;5.18;;;37.30;54.80;;;;;;4732332;30;20210;-69
2022/08/26 10:24:07;;;;;;;9.50;4.55;;;37.30;53.70;;;;;;4732364;30;20206;-72
2022/08/26 10:27:09;;;;;;;9.27;4.32;;;37.70;54.00;;;;;;4718038;30;20256;-71
2022/08/26 10:29:46;;;;;;;6.88;4.50;;;38.00;52.30;;;;;;4732432;30;20250;-68
2022/08/26 10:32:29;;;;;;;6.55;4.32;;;38.10;51.60;;;;;;4732472;30;20302;-71
2022/08/26 10:34:57;;;;;;;8.00;4.05;;;38.30;50.70;;;;;;4732276;30;20209;-68
2022/08/26 10:37:35;;;;;;;9.52;4.40;;;38.20;51.30;;;;;;4737079;30;20313;-69
2022/08/26 10:40:24;;;;;;;8.63;4.57;;;37.80;50.30;;;;;;4749911;30;20632;-69
2022/08/26 10:42:57;;;;;;;12.60;4.60;;;37.20;50.50;;;;;;4717544;30;20658;-71
2022/08/26 10:45:31;;;;;;;10.25;4.55;;;36.80;52.00;;;;;;4758262;30;20265;-71
2022/08/26 10:48:11;;;;;;;12.57;4.82;;;36.80;52.40;;;;;;4785769;30;20303;-71
2022/08/26 10:50:41;;;;;;;13.70;5.47;;;36.60;53.50;;;;;;4785819;30;20367;-68
2022/08/26 10:53:20;;;;;;;10.20;4.97;;;36.40;52.30;;;;;;4785266;30;20655;-68
2022/08/26 10:56:04;;;;;;;10.70;5.25;;;36.20;52.10;;;;;;4785245;30;20662;-67
2022/08/26 10:58:40;;;;;;;10.77;5.57;;;36.10;52.40;;;;;;4785113;30;20236;-67
2022/08/26 11:04:15;;;;;;;8.70;5.30;;;36.40;52.90;;;;;;4785145;30;20303;-67
2022/08/26 11:06:45;;;;;;;9.40;5.40;;;36.40;52.30;;;;;;4785278;30;20218;-66
2022/08/26 11:09:43;;;;;;;9.05;5.35;;;36.20;53.30;;;;;;4785205;30;20817;-66
2022/08/26 11:12:36;;;;;;;13.13;6.07;;;35.70;52.60;;;;;;4770715;30;20240;-69
2022/08/26 11:15:07;;;;;;;12.18;5.68;;;35.40;52.80;;;;;;4785441;30;20224;-68
2022/08/26 11:17:43;;;;;;;9.98;6.05;;;35.20;53.50;;;;;;4785347;30;20219;-67
2022/08/26 11:20:28;;;;;;;10.52;6.22;;;35.10;54.80;;;;;;4793034;29;20289;-68
2022/08/26 11:23:16;;;;;;;7.55;5.13;;;34.80;54.80;;;;;;4800689;29;20208;-68
2022/08/26 11:25:55;;;;;;;8.35;5.80;;;34.80;53.90;;;;;;4786346;29;20246;-67
2022/08/26 11:28:44;;;;;;;10.27;6.13;;;34.70;54.50;;;;;;4804055;29;20208;-68
2022/08/26 11:31:24;;;;;;;7.63;5.30;;;34.70;54.50;;;;;;4804111;29;20215;-69
2022/08/26 11:34:02;;;;;;;10.73;5.47;;;34.50;55.80;;;;;;4804369;29;20605;-67
2022/08/26 11:36:38;;;;;;;11.85;5.93;;;34.30;55.70;;;;;;4788989;30;20251;-71
2022/08/26 11:39:44;;;;;;;16.73;5.93;;;34.20;55.10;;;;;;4790113;30;20231;-68
2022/08/26 11:42:39;;;;;;;10.77;5.90;;;34.00;55.80;;;;;;4788998;30;20208;-66
2022/08/26 11:45:15;;;;;;;10.90;5.68;;;33.70;55.60;;;;;;4788950;30;20244;-66
2022/08/26 11:47:42;;;;;;;13.82;5.95;;;33.20;55.10;;;;;;4788933;30;20231;-68
2022/08/26 11:50:18;;;;;;;9.63;5.63;;;33.10;55.80;;;;;;4773723;30;20226;-66
2022/08/26 11:52:55;;;;;;;10.13;5.88;;;33.10;55.70;;;;;;4773655;30;20651;-68
2022/08/26 11:55:23;;;;;;;12.30;6.78;;;32.90;55.90;;;;;;4774006;30;20208;-68
2022/08/26 11:57:54;;;;;;;10.30;6.28;;;33.30;57.50;;;;;;4773914;30;20204;-68
2022/08/26 12:00:25;;;;;;;10.55;5.90;;;33.90;56.80;;;;;;4789961;30;20228;-69
2022/08/26 12:02:54;;;;;;;10.00;5.35;;;34.50;56.10;;;;;;4773653;30;20205;-67
2022/08/26 12:05:29;;;;;;;10.65;5.43;;;35.20;55.80;;;;;;4788820;30;20291;-70
2022/08/26 12:08:05;;;;;;;9.43;5.68;;;35.90;54.50;;;;;;4773791;30;20200;-68
2022/08/26 12:10:32;;;;;;;10.23;5.50;;;36.30;52.80;;;;;;4788660;29;20609;-67
2022/08/26 12:13:01;;;;;;;12.50;5.15;;;37.00;52.60;;;;;;4788470;30;20646;-69
2022/08/26 12:15:30;;;;;;;10.57;5.25;;;37.30;52.20;;;;;;4789191;30;20569;-67
2022/08/26 12:18:20;;;;;;;7.80;4.90;;;38.20;51.40;;;;;;4773742;30;20214;-68
2022/08/26 12:20:59;;;;;;;8.25;5.00;;;39.10;49.90;;;;;;4789485;30;20299;-66
2022/08/26 12:23:25;;;;;;;7.85;4.70;;;39.70;47.90;;;;;;4789459;30;20253;-67
2022/08/26 12:26:08;;;;;;;9.18;4.90;;;39.60;47.60;;;;;;4772985;30;20217;-67
2022/08/26 12:28:45;;;;;;;8.55;4.50;;;40.00;48.00;;;;;;4789317;30;20583;-67
2022/08/26 12:31:38;;;;;;;10.05;4.85;;;40.40;47.10;;;;;;4787938;30;20208;-71
2022/08/26 12:34:09;;;;;;;8.23;4.38;;;40.60;46.00;;;;;;4733985;30;20206;-67
2022/08/26 12:36:49;;;;;;;6.70;4.38;;;40.90;45.70;;;;;;4733497;30;20233;-69
2022/08/26 12:39:25;;;;;;;7.28;4.22;;;41.20;44.20;;;;;;4716430;30;20270;-69
2022/08/26 12:41:55;;;;;;;10.48;5.47;;;41.60;43.90;;;;;;4701806;30;20666;-69
2022/08/26 12:44:32;;;;;;;6.72;4.55;;;41.20;43.50;;;;;;4716275;30;20251;-68
2022/08/26 12:47:18;;;;;;;9.68;4.80;;;41.50;44.20;;;;;;4701513;30;20318;-68
2022/08/26 12:50:28;;;;;;;6.95;4.50;;;42.00;43.50;;;;;;4701762;30;20298;-69
2022/08/26 12:53:02;;;;;;;6.50;4.30;;;41.90;42.80;;;;;;4716152;30;20269;-68
2022/08/26 12:55:34;;;;;;;8.75;4.80;;;41.80;43.10;;;;;;4715790;30;20308;-68
2022/08/26 12:58:15;;;;;;;8.10;4.93;;;42.00;42.70;;;;;;4701628;30;20352;-68
2022/08/26 13:00:44;;;;;;;10.93;4.65;;;41.70;42.40;;;;;;4701369;30;20289;-67
2022/08/26 13:03:33;;;;;;;13.38;5.00;;;41.70;41.80;;;;;;4715950;30;20211;-67
2022/08/26 13:06:09;;;;;;;5.80;4.85;;;41.90;42.00;;;;;;4701460;30;20211;-68
2022/08/26 13:08:55;;;;;;;9.13;5.15;;;41.40;41.90;;;;;;4701413;30;20650;-69
2022/08/26 13:11:53;;;;;;;11.30;5.40;;;41.20;42.30;;;;;;4745319;30;20232;-70
2022/08/26 13:14:23;;;;;;;12.00;5.50;;;40.90;43.00;;;;;;4754758;30;20327;-68
2022/08/26 13:16:52;;;;;;;10.63;5.93;;;40.50;43.00;;;;;;4769602;30;20239;-66